Thompsonville, MI

9:44 AM EST on January 29, 2015 (GMT -0500)
Cherry Capital | Change Station
CLOSE
Current Station
Airport
Location: Traverse City,
Elevation: 623 ft
Nearby Weather Stations
Active Advisory: Winter Weather Advisory Active Notice: Public Information Statement

Elev 623 ft 44.74 °N, 85.59 °W | Updated 51 minutes ago

Overcast
Overcast
26 °F
Feels Like 22 °F
N
4
Wind Variable Wind from WNW

Today
High -- | Low -- °F
--% Chance of Precip.
Yesterday
High -- | Low -- °F
Precip. -- in
8:06 AM 5:48 PM
Waxing Gibbous, 74% visible
Pressure 29.80 in
Visibility 4.0 miles
Clouds Overcast 1900 ft
Windchill 22 °F
Dew Point 22 °F
Humidity 84%
Rainfall 0.27 in
Snow Depth Not available.
UV 0 out of 12
Pollen .10 out of 12
Air Quality Not available.
Flu Activity Not available.
METAR KTVC 291353Z 30003KT 4SM BR OVC019 M03/M06 A2977 RMK AO2 SNE40 SLP090 P0000 T10331056

More Conditions Fewer Conditions

Pressure 29.80 in
Visibility 4.0 miles
Clouds Overcast 1900 ft
Windchill 22 °F
Dew Point 22 °F
Humidity 84%
Rainfall 0.27 in
Snow Depth Not available.
UV 0 out of 12
Pollen .10 out of 12
Air Quality Not available.
Flu Activity Not available.
METAR KTVC 291353Z 30003KT 4SM BR OVC019 M03/M06 A2977 RMK AO2 SNE40 SLP090 P0000 T10331056

More Conditions Fewer Conditions

Nowcast | as of 9:00 am EST on January 29, 2015

Winter Weather Advisory in effect until 1 PM EST this afternoon... At 10 am...cloudy. Temperature 30. West winds 7 mph. At 12 PM...cloudy. Temperature 30. Northwest winds 11 mph. At 2 PM...cloudy. Chance of snow. Temperature 33. North winds 19 mph with gusts to 30 mph. At 4 PM...cloudy. Slight chance of snow. Temperature 31. North winds 26 mph.

×

10-Day Weather Forecast

Almanac

Astronomy

Jan. 29, 2015 Rise Set
Actual Time
Civil Twilight
Nautical Twilight
Astronomical Twilight
Moon
Length of Visible Light
Length of Day
Tomorrow will be .
, % of the Moon is Illuminated

Today's Extremes

State Highs State Lows

Community

WunderPhotos

Upload Photos

1,791,443 photos uploaded!

WunderBlogs® & News

Nearby

Air Quality

  Air Quality AQ Index Pollutant
Not available.

Snow Depth

Station Depth Elevation

Earthquake Activity

City Distance Mag. Time & Date
Minimum magnitude displayed is 2.5.

Coastal Water Temperatures

Place Temperature

Nearby Weather Stations